Aeroporto :
LOGIN :

Iscrizione | Disclaimer

   EN    FR    IT 

 










Sommario :    VFR   VFR Marginale   IFR   IFR Intensivo   IFR Molto Intensivo
Visibilità : 
Base nubi : 
>= 8 km
>= 3000ft
5 / 8 km
1000 / 3000 ft
1500m / 5 km
500 / 1000 ft
800 / 1500m
200 / 500 ft
< 800m
< 200 ft
Simboli :   Temporali  Nebbia  Neve Forte  Precipitazioni Forti  Vento > 20 kt
SIGMETs :   Varie  Temporali  Ghiacco  Turbolenza  Onda orograficha  Ceneri Vulcaniche






- Altitudine del aeroporto : 141 ft
- Codice IATA : SKS


EKSP - Srydstrup Vojens

ULTIMO METAR :
  • 081850Z 25007KT CAVOK 08/05 Q1022 RMK BKN130

METARs OBSOLETI :
  • 081820Z 26006KT CAVOK 09/05 Q1022 RMK FEW120
  • 081750Z 27006KT CAVOK 09/05 Q1022 RMK FEW120
  • 081720Z 26010KT CAVOK 11/05 Q1022 RMK FEW120
  • 081650Z 27009KT CAVOK 13/05 Q1022 RMK FEW120
  • 081620Z 26010KT CAVOK 14/06 Q1022

TAF TAF EKSP
Valido dal 08 a 18 ore il 09 a 18 ore UTC


081721Z 0818/0918 27008KT 9999 SCT050
BECMG 0901/0904 31012KT
TEMPO 0903/0906 6000 BKN008



MetMap, La meteo Aeronautica in un colpo d'occhio ! - Copyright ORBIFLY Dicembre 2007 - Disclaimer

ORBIFLY MET'MAP TEAM :

Programmazione e sviluppo : Alexandra Zaïnal
Concezione : Baudouin d'Aumeries
Aiuto per la programmazione : Marc-Olivier Méhu
Supporto tecnico e logistico : Manuel Goepfert
Aiuto per la traduzione : Arnaldo La Scala

Contatto : metmap@orbifly.com




FONTI E CREDITI :

   NOAA